createdAt,value
2022-09-23T00:00:34.029Z,993.61
2022-09-23T00:01:34.090Z,993.61
2022-09-23T00:02:34.048Z,993.59
2022-09-23T00:03:34.009Z,993.59
2022-09-23T00:04:34.003Z,993.58
2022-09-23T00:05:33.984Z,993.57
2022-09-23T00:06:33.978Z,993.58
2022-09-23T00:07:33.983Z,993.59
2022-09-23T00:08:33.954Z,993.60
2022-09-23T00:09:33.952Z,993.65
2022-09-23T00:10:33.929Z,993.59
2022-09-23T00:11:33.932Z,993.61
2022-09-23T00:12:33.953Z,993.66
2022-09-23T00:13:33.918Z,993.57
2022-09-23T00:14:33.901Z,993.62
2022-09-23T00:15:33.905Z,993.62
2022-09-23T00:16:33.998Z,993.56
2022-09-23T00:17:33.877Z,993.57
2022-09-23T00:18:33.890Z,993.60
2022-09-23T00:19:33.848Z,993.59
2022-09-23T00:20:33.840Z,993.60
2022-09-23T00:21:33.855Z,993.58
2022-09-23T00:22:33.836Z,993.54
2022-09-23T00:23:33.808Z,993.51
2022-09-23T00:24:33.805Z,993.59
2022-09-23T00:25:33.812Z,993.51
2022-09-23T00:26:33.814Z,993.53
2022-09-23T00:27:33.778Z,993.65
2022-09-23T00:28:33.767Z,993.48
2022-09-23T00:29:33.749Z,993.56
2022-09-23T00:30:33.804Z,993.58
2022-09-23T00:31:33.746Z,993.53
2022-09-23T00:32:33.731Z,993.59
2022-09-23T00:33:33.728Z,993.58
2022-09-23T00:34:33.708Z,993.53
2022-09-23T00:35:33.691Z,993.58
2022-09-23T00:36:33.693Z,993.56
2022-09-23T00:37:33.660Z,993.46
2022-09-23T00:38:33.675Z,993.57
2022-09-23T00:39:33.653Z,993.53
2022-09-23T00:40:33.718Z,993.46
2022-09-23T00:41:33.659Z,993.47
2022-09-23T00:42:33.628Z,993.50
2022-09-23T00:43:33.629Z,993.44
2022-09-23T00:44:33.608Z,993.43
2022-09-23T00:45:33.609Z,993.42
2022-09-23T00:46:33.713Z,993.43
2022-09-23T00:47:33.581Z,993.38
2022-09-23T00:48:33.565Z,993.42
2022-09-23T00:49:33.547Z,993.38
2022-09-23T00:50:33.564Z,993.34
2022-09-23T00:51:33.539Z,993.34
2022-09-23T00:52:33.519Z,993.39
2022-09-23T00:53:33.544Z,993.38
2022-09-23T00:54:33.526Z,993.33
2022-09-23T00:55:33.522Z,993.31
2022-09-23T00:56:33.477Z,993.29
2022-09-23T00:57:33.482Z,993.38
2022-09-23T00:58:33.481Z,993.36
2022-09-23T00:59:33.485Z,993.36
2022-09-23T01:00:33.475Z,993.30
2022-09-23T01:01:33.516Z,993.31
2022-09-23T01:02:33.531Z,993.33
2022-09-23T01:03:33.427Z,993.27
2022-09-23T01:04:33.423Z,993.25
2022-09-23T01:05:33.425Z,993.26
2022-09-23T01:06:33.396Z,993.29
2022-09-23T01:07:33.391Z,993.30
2022-09-23T01:08:33.378Z,993.24
2022-09-23T01:09:33.363Z,993.28
2022-09-23T01:10:33.350Z,993.23
2022-09-23T01:11:33.368Z,993.26
2022-09-23T01:12:33.341Z,993.28
2022-09-23T01:13:33.328Z,993.25
2022-09-23T01:14:33.317Z,993.18
2022-09-23T01:15:33.317Z,993.24
2022-09-23T01:16:33.417Z,993.22
2022-09-23T01:17:33.299Z,993.24
2022-09-23T01:18:33.272Z,993.23
2022-09-23T01:19:33.275Z,993.22
2022-09-23T01:20:33.282Z,993.22
2022-09-23T01:21:33.245Z,993.22
2022-09-23T01:22:33.252Z,993.28
2022-09-23T01:23:33.229Z,993.17
2022-09-23T01:24:33.242Z,993.21
2022-09-23T01:25:33.232Z,993.22
2022-09-23T01:26:33.202Z,993.16
2022-09-23T01:27:33.194Z,993.15
2022-09-23T01:28:33.197Z,993.13
2022-09-23T01:29:33.209Z,993.17
2022-09-23T01:30:33.208Z,993.12
2022-09-23T01:31:33.151Z,993.09
2022-09-23T01:32:33.138Z,993.11
2022-09-23T01:33:33.137Z,993.16
2022-09-23T01:34:33.143Z,993.07
2022-09-23T01:35:33.116Z,993.12
2022-09-23T01:36:33.115Z,993.03
2022-09-23T01:37:33.102Z,993.14
2022-09-23T01:38:33.109Z,993.06
2022-09-23T01:39:33.085Z,993.06
2022-09-23T01:40:33.111Z,993.07
2022-09-23T01:41:33.047Z,993.01
2022-09-23T01:42:33.054Z,993.03
2022-09-23T01:43:33.057Z,993.00
2022-09-23T01:44:33.042Z,993.07
2022-09-23T01:45:33.048Z,993.07
2022-09-23T01:46:33.022Z,993.06
2022-09-23T01:47:33.005Z,993.02
2022-09-23T01:48:33.104Z,993.03
2022-09-23T01:49:32.999Z,993.08
2022-09-23T01:50:32.982Z,993.02
2022-09-23T01:51:32.959Z,993.04
2022-09-23T01:52:32.984Z,993.06
2022-09-23T01:53:32.942Z,993.04
2022-09-23T01:54:32.936Z,993.05
2022-09-23T01:55:32.927Z,993.02
2022-09-23T01:57:04.807Z,993.07
2022-09-23T01:57:32.920Z,993.01
2022-09-23T01:58:32.882Z,993.01
2022-09-23T01:59:32.900Z,993.05
2022-09-23T02:00:32.882Z,993.04
2022-09-23T02:01:32.919Z,993.04
2022-09-23T02:02:32.892Z,993.01
2022-09-23T02:03:32.854Z,993.03
2022-09-23T02:04:32.828Z,992.98
2022-09-23T02:05:32.811Z,993.02
2022-09-23T02:06:32.824Z,992.97
2022-09-23T02:07:32.806Z,992.94
2022-09-23T02:08:32.796Z,992.93
2022-09-23T02:09:32.785Z,993.01
2022-09-23T02:10:32.759Z,992.95
2022-09-23T02:11:33.781Z,992.98
2022-09-23T02:12:32.755Z,993.05
2022-09-23T02:13:32.754Z,993.06
2022-09-23T02:14:32.745Z,993.04
2022-09-23T02:15:32.722Z,993.07
2022-09-23T02:16:32.760Z,993.08
2022-09-23T02:17:32.701Z,992.98
2022-09-23T02:18:32.686Z,993.01
2022-09-23T02:19:32.692Z,993.00
2022-09-23T02:20:32.671Z,993.00
2022-09-23T02:21:32.665Z,993.05
2022-09-23T02:22:32.665Z,992.97
2022-09-23T02:23:32.626Z,993.01
2022-09-23T02:24:32.636Z,992.97
2022-09-23T02:25:32.641Z,992.93
2022-09-23T02:26:32.611Z,992.90
2022-09-23T02:27:32.600Z,992.94
2022-09-23T02:28:32.590Z,992.90
2022-09-23T02:29:32.586Z,992.94
2022-09-23T02:30:32.585Z,992.90
2022-09-23T02:31:32.624Z,992.91
2022-09-23T02:32:32.551Z,992.89
2022-09-23T02:33:32.542Z,992.96
2022-09-23T02:34:32.559Z,992.91
2022-09-23T02:35:32.534Z,992.94
2022-09-23T02:36:32.546Z,992.93
2022-09-23T02:37:32.510Z,992.89
2022-09-23T02:38:32.502Z,992.91
2022-09-23T02:39:32.492Z,992.94
2022-09-23T02:40:32.532Z,992.90
2022-09-23T02:41:32.471Z,992.89
2022-09-23T02:42:32.456Z,992.89
2022-09-23T02:43:32.474Z,992.87
2022-09-23T02:44:32.450Z,992.96
2022-09-23T02:45:32.471Z,992.94
2022-09-23T02:46:32.422Z,992.97
2022-09-23T02:47:32.418Z,992.90
2022-09-23T02:48:32.435Z,992.86
2022-09-23T02:49:32.399Z,992.86
2022-09-23T02:50:32.385Z,992.93
2022-09-23T02:51:32.387Z,992.82
2022-09-23T02:52:32.389Z,992.87
2022-09-23T02:53:32.365Z,992.85
2022-09-23T02:54:32.377Z,992.82
2022-09-23T02:55:32.395Z,992.84
2022-09-23T02:56:33.336Z,992.75
2022-09-23T02:57:32.325Z,992.77
2022-09-23T02:58:32.353Z,992.77
2022-09-23T02:59:32.321Z,992.74
2022-09-23T03:00:32.287Z,992.76
2022-09-23T03:01:32.365Z,992.81
2022-09-23T03:02:32.293Z,992.78
2022-09-23T03:03:32.262Z,992.73
2022-09-23T03:04:32.269Z,992.75
2022-09-23T03:05:32.242Z,992.73
2022-09-23T03:06:32.249Z,992.76
2022-09-23T03:07:32.234Z,992.67
2022-09-23T03:08:32.218Z,992.64
2022-09-23T03:09:32.244Z,992.66
2022-09-23T03:10:32.203Z,992.68
2022-09-23T03:11:32.184Z,992.68
2022-09-23T03:12:32.185Z,992.67
2022-09-23T03:13:32.160Z,992.68
2022-09-23T03:14:32.163Z,992.70
2022-09-23T03:15:32.174Z,992.63
2022-09-23T03:16:32.177Z,992.63
2022-09-23T03:17:32.140Z,992.61
2022-09-23T03:18:32.154Z,992.68
2022-09-23T03:19:32.119Z,992.63
2022-09-23T03:20:32.104Z,992.59
2022-09-23T03:21:32.102Z,992.60
2022-09-23T03:22:32.087Z,992.66
2022-09-23T03:23:32.081Z,992.64
2022-09-23T03:24:32.098Z,992.59
2022-09-23T03:25:32.058Z,992.57
2022-09-23T03:26:32.046Z,992.53
2022-09-23T03:27:32.036Z,992.54
2022-09-23T03:28:32.026Z,992.57
2022-09-23T03:29:32.025Z,992.55
2022-09-23T03:30:32.000Z,992.52
2022-09-23T03:31:32.022Z,992.57
2022-09-23T03:32:31.987Z,992.48
2022-09-23T03:33:32.034Z,992.50
2022-09-23T03:34:31.968Z,992.51
2022-09-23T03:35:31.962Z,992.50
2022-09-23T03:36:31.948Z,992.48
2022-09-23T03:37:31.945Z,992.51
2022-09-23T03:38:31.955Z,992.46
2022-09-23T03:39:31.914Z,992.48
2022-09-23T03:40:31.967Z,992.56
2022-09-23T03:41:31.906Z,992.50
2022-09-23T03:42:31.892Z,992.48
2022-09-23T03:43:35.207Z,992.49
2022-09-23T03:44:31.903Z,992.49
2022-09-23T03:45:31.886Z,992.46
2022-09-23T03:46:31.852Z,992.51
2022-09-23T03:47:31.854Z,992.42
2022-09-23T03:48:31.851Z,992.42
2022-09-23T03:49:31.819Z,992.45
2022-09-23T03:50:32.815Z,992.41
2022-09-23T03:51:31.809Z,992.38
2022-09-23T03:52:31.801Z,992.42
2022-09-23T03:53:31.816Z,992.41
2022-09-23T03:54:31.783Z,992.34
2022-09-23T03:55:31.767Z,992.36
2022-09-23T03:56:31.752Z,992.39
2022-09-23T03:57:31.745Z,992.42
2022-09-23T03:58:31.758Z,992.42
2022-09-23T03:59:31.730Z,992.39
2022-09-23T04:00:31.739Z,992.38
2022-09-23T04:01:31.728Z,992.38
2022-09-23T04:02:31.728Z,992.34
2022-09-23T04:03:31.699Z,992.42
2022-09-23T04:04:31.689Z,992.34
2022-09-23T04:05:31.684Z,992.38
2022-09-23T04:06:31.689Z,992.35
2022-09-23T04:07:31.683Z,992.39
2022-09-23T04:08:31.649Z,992.30
2022-09-23T04:09:31.643Z,992.36
2022-09-23T04:10:31.628Z,992.39
2022-09-23T04:11:31.618Z,992.31
2022-09-23T04:12:31.618Z,992.33
2022-09-23T04:13:31.590Z,992.39
2022-09-23T04:14:31.581Z,992.32
2022-09-23T04:15:31.568Z,992.28
2022-09-23T04:16:31.640Z,992.31
2022-09-23T04:17:31.555Z,992.28
2022-09-23T04:18:31.565Z,992.22
2022-09-23T04:19:31.546Z,992.22
2022-09-23T04:20:31.517Z,992.27
2022-09-23T04:21:31.513Z,992.23
2022-09-23T04:22:31.500Z,992.20
2022-09-23T04:23:31.516Z,992.25
2022-09-23T04:24:31.496Z,992.19
2022-09-23T04:25:31.504Z,992.21
2022-09-23T04:26:31.469Z,992.26
2022-09-23T04:27:36.834Z,992.23
2022-09-23T04:28:33.465Z,992.16
2022-09-23T04:29:31.452Z,992.18
2022-09-23T04:30:31.446Z,992.13
2022-09-23T04:31:31.499Z,992.14
2022-09-23T04:32:31.415Z,992.17
2022-09-23T04:33:31.409Z,992.16
2022-09-23T04:34:31.401Z,992.13
2022-09-23T04:35:31.397Z,992.15
2022-09-23T04:36:31.395Z,992.21
2022-09-23T04:37:31.376Z,992.11
2022-09-23T04:38:31.359Z,992.12
2022-09-23T04:39:31.353Z,992.20
2022-09-23T04:40:31.399Z,992.16
2022-09-23T04:41:31.341Z,992.11
2022-09-23T04:42:31.326Z,992.17
2022-09-23T04:43:31.324Z,992.12
2022-09-23T04:44:31.310Z,992.17
2022-09-23T04:45:31.300Z,992.10
2022-09-23T04:46:31.316Z,992.15
2022-09-23T04:47:31.298Z,992.11
2022-09-23T04:48:31.255Z,992.11
2022-09-23T04:49:31.248Z,992.08
2022-09-23T04:50:31.257Z,992.12
2022-09-23T04:51:31.246Z,992.06
2022-09-23T04:52:31.249Z,992.04
2022-09-23T04:53:31.218Z,992.03
2022-09-23T04:54:31.203Z,992.06
2022-09-23T04:55:31.202Z,992.06
2022-09-23T04:56:31.188Z,992.12
2022-09-23T04:57:31.199Z,992.09
2022-09-23T04:58:31.166Z,992.17
2022-09-23T04:59:31.157Z,992.16
2022-09-23T05:00:31.182Z,992.06
2022-09-23T05:01:31.245Z,992.14
2022-09-23T05:02:31.208Z,992.11
2022-09-23T05:03:31.119Z,992.08
2022-09-23T05:04:31.105Z,992.14
2022-09-23T05:05:31.098Z,992.10
2022-09-23T05:06:31.107Z,992.10
2022-09-23T05:07:31.089Z,992.09
2022-09-23T05:08:31.067Z,992.13
2022-09-23T05:09:31.053Z,992.08
2022-09-23T05:10:31.055Z,992.16
2022-09-23T05:11:31.063Z,992.11
2022-09-23T05:12:31.031Z,992.14
2022-09-23T05:13:31.015Z,992.10
2022-09-23T05:14:31.012Z,992.11
2022-09-23T05:15:30.997Z,992.16
2022-09-23T05:16:31.137Z,992.15
2022-09-23T05:17:30.983Z,992.19
2022-09-23T05:18:30.993Z,992.15
2022-09-23T05:19:30.970Z,992.16
2022-09-23T05:20:30.953Z,992.18
2022-09-23T05:21:30.945Z,992.18
2022-09-23T05:22:30.927Z,992.16
2022-09-23T05:23:30.963Z,992.22
2022-09-23T05:24:30.902Z,992.17
2022-09-23T05:25:34.050Z,992.19
2022-09-23T05:26:30.904Z,992.20
2022-09-23T05:27:30.871Z,992.22
2022-09-23T05:28:32.890Z,992.14
2022-09-23T05:29:30.865Z,992.21
2022-09-23T05:30:30.855Z,992.21
2022-09-23T05:31:30.918Z,992.22
2022-09-23T05:32:30.856Z,992.20
2022-09-23T05:33:30.812Z,992.22
2022-09-23T05:34:31.814Z,992.16
2022-09-23T05:35:30.801Z,992.23
2022-09-23T05:36:35.584Z,992.24
2022-09-23T05:37:32.796Z,992.16
2022-09-23T05:38:30.775Z,992.20
2022-09-23T05:39:30.785Z,992.19
2022-09-23T05:40:30.793Z,992.17
2022-09-23T05:41:30.744Z,992.18
2022-09-23T05:42:30.736Z,992.14
2022-09-23T05:43:30.775Z,992.23
2022-09-23T05:44:30.728Z,992.21
2022-09-23T05:45:30.719Z,992.21
2022-09-23T05:46:30.810Z,992.20
2022-09-23T05:47:30.692Z,992.22
2022-09-23T05:48:30.678Z,992.23
2022-09-23T05:49:55.336Z,992.23
2022-09-23T05:50:32.659Z,992.25
2022-09-23T05:51:31.344Z,992.26
2022-09-23T05:52:31.643Z,992.26
2022-09-23T05:53:30.639Z,992.23
2022-09-23T05:54:30.625Z,992.28
2022-09-23T05:55:30.622Z,992.29
2022-09-23T05:56:30.626Z,992.28
2022-09-23T05:57:30.594Z,992.27
2022-09-23T05:58:30.587Z,992.35
2022-09-23T05:59:30.573Z,992.28
2022-09-23T06:00:30.558Z,992.23
2022-09-23T06:01:30.581Z,992.28
2022-09-23T06:02:30.598Z,992.29
2022-09-23T06:03:30.545Z,992.28
2022-09-23T06:04:30.530Z,992.23
2022-09-23T06:05:30.525Z,992.30
2022-09-23T06:06:30.549Z,992.23
2022-09-23T06:07:30.510Z,992.30
2022-09-23T06:08:30.487Z,992.26
2022-09-23T06:09:35.622Z,992.25
2022-09-23T06:10:32.469Z,992.31
2022-09-23T06:11:30.481Z,992.29
2022-09-23T06:12:30.456Z,992.31
2022-09-23T06:13:30.446Z,992.26
2022-09-23T06:14:30.445Z,992.28
2022-09-23T06:15:30.417Z,992.23
2022-09-23T06:16:30.536Z,992.23
2022-09-23T06:17:30.405Z,992.29
2022-09-23T06:18:30.396Z,992.28
2022-09-23T06:19:30.378Z,992.28
2022-09-23T06:20:30.382Z,992.33
2022-09-23T06:21:30.383Z,992.29
2022-09-23T06:22:30.357Z,992.27
2022-09-23T06:23:30.342Z,992.29
2022-09-23T06:24:31.549Z,992.29
2022-09-23T06:25:31.316Z,992.26
2022-09-23T06:26:31.335Z,992.23
2022-09-23T06:27:30.307Z,992.30
2022-09-23T06:28:30.304Z,992.33
2022-09-23T06:29:30.312Z,992.30
2022-09-23T06:30:30.288Z,992.32
2022-09-23T06:31:30.365Z,992.30
2022-09-23T06:32:30.256Z,992.31
2022-09-23T06:33:36.830Z,992.28
2022-09-23T06:34:43.383Z,992.31
2022-09-23T06:35:31.231Z,992.27
2022-09-23T06:36:40.551Z,992.24
2022-09-23T06:37:32.208Z,992.27
2022-09-23T06:38:30.217Z,992.24
2022-09-23T06:39:30.185Z,992.25
2022-09-23T06:40:30.222Z,992.22
2022-09-23T06:41:30.169Z,992.19
2022-09-23T06:42:30.197Z,992.26
2022-09-23T06:43:30.177Z,992.28
2022-09-23T06:44:30.139Z,992.30
2022-09-23T06:45:30.139Z,992.28
2022-09-23T06:46:30.199Z,992.28
2022-09-23T06:47:30.127Z,992.31
2022-09-23T06:48:30.128Z,992.24
2022-09-23T06:49:30.094Z,992.23
2022-09-23T06:50:30.081Z,992.30
2022-09-23T06:51:30.099Z,992.26
2022-09-23T06:52:30.070Z,992.27
2022-09-23T06:53:30.057Z,992.31
2022-09-23T06:54:30.047Z,992.23
2022-09-23T06:55:30.053Z,992.22
2022-09-23T06:56:32.550Z,992.23
2022-09-23T06:57:30.013Z,992.28
2022-09-23T06:58:30.023Z,992.29
2022-09-23T06:59:29.986Z,992.27
2022-09-23T07:00:30.980Z,992.28
2022-09-23T07:01:30.078Z,992.31
2022-09-23T07:02:30.176Z,992.29
2022-09-23T07:03:29.970Z,992.26
2022-09-23T07:04:29.948Z,992.23
2022-09-23T07:05:29.929Z,992.21
2022-09-23T07:06:29.925Z,992.23
2022-09-23T07:07:29.930Z,992.19
2022-09-23T07:08:29.928Z,992.20
2022-09-23T07:09:29.913Z,992.21
2022-09-23T07:10:29.883Z,992.20
2022-09-23T07:11:29.931Z,992.25
2022-09-23T07:12:29.869Z,992.12
2022-09-23T07:13:29.848Z,992.13
2022-09-23T07:14:29.847Z,992.22
2022-09-23T07:15:29.843Z,992.13
2022-09-23T07:16:29.951Z,992.11
2022-09-23T07:17:29.819Z,992.12
2022-09-23T07:18:34.264Z,992.03
2022-09-23T07:19:31.813Z,992.14
2022-09-23T07:20:29.817Z,992.05
2022-09-23T07:21:29.785Z,992.10
2022-09-23T07:22:29.764Z,992.09
2022-09-23T07:23:29.787Z,992.08
2022-09-23T07:24:29.755Z,992.09
2022-09-23T07:25:29.737Z,992.09
2022-09-23T07:26:29.738Z,992.08
2022-09-23T07:27:29.718Z,992.09
2022-09-23T07:28:29.742Z,992.10
2022-09-23T07:29:37.243Z,992.14
2022-09-23T07:30:30.697Z,992.13
2022-09-23T07:31:38.344Z,992.14
2022-09-23T07:32:44.077Z,992.10
2022-09-23T07:33:32.728Z,992.01
2022-09-23T07:34:30.675Z,991.97
2022-09-23T07:35:29.645Z,992.00
2022-09-23T07:36:29.646Z,992.00
2022-09-23T07:37:29.630Z,991.98
2022-09-23T07:38:29.617Z,992.02
2022-09-23T07:39:29.627Z,992.00
2022-09-23T07:40:29.679Z,991.91
2022-09-23T07:41:29.588Z,991.95
2022-09-23T07:42:29.581Z,991.97
2022-09-23T07:43:29.604Z,991.96
2022-09-23T07:44:29.566Z,991.98
2022-09-23T07:45:29.546Z,991.91
2022-09-23T07:46:29.653Z,991.96
2022-09-23T07:47:29.529Z,991.88
2022-09-23T07:48:33.883Z,991.91
2022-09-23T07:49:29.517Z,991.93
2022-09-23T07:50:29.509Z,991.85
2022-09-23T07:51:34.737Z,991.92
2022-09-23T07:52:30.494Z,991.95
2022-09-23T07:53:29.475Z,991.79
2022-09-23T07:54:29.492Z,991.87
2022-09-23T07:55:29.460Z,991.80
2022-09-23T07:56:29.443Z,991.84
2022-09-23T07:58:01.336Z,991.83
2022-09-23T07:58:29.460Z,991.82
2022-09-23T07:59:29.450Z,991.84
2022-09-23T08:00:29.416Z,991.86
2022-09-23T08:01:29.568Z,991.83
2022-09-23T08:02:29.442Z,991.81
2022-09-23T08:03:29.375Z,991.83
2022-09-23T08:04:29.379Z,991.82
2022-09-23T08:05:29.365Z,991.83
2022-09-23T08:06:29.368Z,991.86
2022-09-23T08:07:29.338Z,991.83
2022-09-23T08:08:29.337Z,991.77
2022-09-23T08:09:29.337Z,991.78
2022-09-23T08:10:29.335Z,991.78
2022-09-23T08:11:29.345Z,991.84
2022-09-23T08:12:29.284Z,991.84
2022-09-23T08:13:29.294Z,991.78
2022-09-23T08:14:29.298Z,991.78
2022-09-23T08:15:29.324Z,991.79
2022-09-23T08:16:29.321Z,991.71
2022-09-23T08:17:29.234Z,991.75
2022-09-23T08:18:29.239Z,991.73
2022-09-23T08:19:29.280Z,991.72
2022-09-23T08:20:29.287Z,991.68
2022-09-23T08:21:29.226Z,991.67
2022-09-23T08:22:29.247Z,991.71
2022-09-23T08:23:29.223Z,991.63
2022-09-23T08:24:29.214Z,991.60
2022-09-23T08:25:31.976Z,991.60
2022-09-23T08:26:29.154Z,991.60
2022-09-23T08:27:29.222Z,991.55
2022-09-23T08:28:29.132Z,991.58
2022-09-23T08:29:29.147Z,991.52
2022-09-23T08:30:29.168Z,991.52
2022-09-23T08:31:29.131Z,991.54
2022-09-23T08:32:29.092Z,991.37
2022-09-23T08:33:29.126Z,991.44
2022-09-23T08:34:29.097Z,991.45
2022-09-23T08:35:29.080Z,991.44
2022-09-23T08:36:29.059Z,991.43
2022-09-23T08:37:29.078Z,991.41
2022-09-23T08:38:29.087Z,991.42
2022-09-23T08:39:29.046Z,991.33
2022-09-23T08:40:29.064Z,991.38
2022-09-23T08:41:29.134Z,991.40
2022-09-23T08:42:29.014Z,991.40
2022-09-23T08:43:28.999Z,991.43
2022-09-23T08:44:29.048Z,991.43
2022-09-23T08:45:28.971Z,991.35
2022-09-23T08:46:29.008Z,991.38
2022-09-23T08:47:28.946Z,991.33
2022-09-23T08:48:28.955Z,991.31
2022-09-23T08:49:29.128Z,991.24
2022-09-23T08:50:28.943Z,991.25
2022-09-23T08:51:28.958Z,991.23
2022-09-23T08:52:28.904Z,991.27
2022-09-23T08:53:28.887Z,991.27
2022-09-23T08:54:28.875Z,991.31
2022-09-23T08:55:28.861Z,991.27
2022-09-23T08:56:28.980Z,991.28
2022-09-23T08:57:28.971Z,991.26
2022-09-23T08:58:29.640Z,991.22
2022-09-23T08:59:28.861Z,991.23
2022-09-23T09:00:28.805Z,991.18
2022-09-23T09:01:28.820Z,991.19
2022-09-23T09:02:28.832Z,991.20
2022-09-23T09:03:28.793Z,991.20
2022-09-23T09:04:28.791Z,991.23
2022-09-23T09:05:28.852Z,991.23
2022-09-23T09:06:28.767Z,991.23
2022-09-23T09:07:37.426Z,991.19
2022-09-23T09:08:30.810Z,991.25
2022-09-23T09:09:28.738Z,991.27
2022-09-23T09:10:28.716Z,991.27
2022-09-23T09:11:28.726Z,991.22
2022-09-23T09:12:28.718Z,991.37
2022-09-23T09:13:28.677Z,991.23
2022-09-23T09:14:29.705Z,991.28
2022-09-23T09:15:28.779Z,991.25
2022-09-23T09:16:55.625Z,991.20
2022-09-23T09:17:34.397Z,991.19
2022-09-23T09:18:29.651Z,991.21
2022-09-23T09:19:28.636Z,991.15
2022-09-23T09:20:28.645Z,991.12
2022-09-23T09:21:28.634Z,991.11
2022-09-23T09:22:28.612Z,991.11
2022-09-23T09:23:28.616Z,991.16
2022-09-23T09:24:28.591Z,991.18
2022-09-23T09:25:33.433Z,991.16
2022-09-23T09:26:30.597Z,991.18
2022-09-23T09:27:28.597Z,991.07
2022-09-23T09:28:28.575Z,991.08
2022-09-23T09:29:35.464Z,991.07
2022-09-23T09:30:29.534Z,991.08
2022-09-23T09:31:28.578Z,991.01
2022-09-23T09:32:28.509Z,991.08
2022-09-23T09:33:28.516Z,991.07
2022-09-23T09:34:28.521Z,991.09
2022-09-23T09:35:28.563Z,991.10
2022-09-23T09:36:30.855Z,991.08
2022-09-23T09:37:28.465Z,991.06
2022-09-23T09:38:28.440Z,991.06
2022-09-23T09:39:29.458Z,991.04
2022-09-23T09:40:28.494Z,991.04
2022-09-23T09:41:28.441Z,991.01
2022-09-23T09:42:28.466Z,991.02
2022-09-23T09:43:28.400Z,990.96
2022-09-23T09:44:28.435Z,990.96
2022-09-23T09:45:28.369Z,990.96
2022-09-23T09:46:28.435Z,990.97
2022-09-23T09:47:28.379Z,990.95
2022-09-23T09:48:28.359Z,990.99
2022-09-23T09:49:28.449Z,990.90
2022-09-23T09:50:28.365Z,990.87
2022-09-23T09:51:28.335Z,990.88
2022-09-23T09:52:28.301Z,990.85
2022-09-23T09:53:28.258Z,990.82
2022-09-23T09:54:28.241Z,990.77
2022-09-23T09:55:28.244Z,990.80
2022-09-23T09:56:28.220Z,990.74
2022-09-23T09:57:32.163Z,990.75
2022-09-23T09:58:28.200Z,990.81
2022-09-23T09:59:28.220Z,990.75
2022-09-23T10:00:28.182Z,990.69
2022-09-23T10:01:28.283Z,990.76
2022-09-23T10:02:28.173Z,990.74
2022-09-23T10:03:29.189Z,990.73
2022-09-23T10:04:28.207Z,990.69
2022-09-23T10:05:28.144Z,990.73
2022-09-23T10:06:28.148Z,990.69
2022-09-23T10:07:28.102Z,990.64
2022-09-23T10:08:28.116Z,990.62
2022-09-23T10:09:28.082Z,990.66
2022-09-23T10:10:32.862Z,990.59
2022-09-23T10:11:29.070Z,990.60
2022-09-23T10:12:28.287Z,990.62
2022-09-23T10:13:28.049Z,990.59
2022-09-23T10:14:28.039Z,990.61
2022-09-23T10:15:28.051Z,990.58
2022-09-23T10:16:28.050Z,990.62
2022-09-23T10:17:28.041Z,990.64
2022-09-23T10:18:27.993Z,990.66
2022-09-23T10:19:28.002Z,990.61
2022-09-23T10:20:28.004Z,990.57
2022-09-23T10:21:28.217Z,990.64
2022-09-23T10:22:28.952Z,990.64
2022-09-23T10:23:27.965Z,990.61
2022-09-23T10:24:27.937Z,990.61
2022-09-23T10:25:27.934Z,990.60
2022-09-23T10:26:27.966Z,990.61
2022-09-23T10:27:27.919Z,990.61
2022-09-23T10:28:27.892Z,990.62
2022-09-23T10:29:27.904Z,990.64
2022-09-23T10:30:27.982Z,990.58
2022-09-23T10:31:27.884Z,990.60
2022-09-23T10:32:27.876Z,990.55
2022-09-23T10:33:27.865Z,990.57
2022-09-23T10:34:27.848Z,990.52
2022-09-23T10:35:27.841Z,990.57
2022-09-23T10:36:28.009Z,990.53
2022-09-23T10:37:27.812Z,990.57
2022-09-23T10:38:27.802Z,990.54
2022-09-23T10:39:27.852Z,990.53
2022-09-23T10:40:27.859Z,990.51
2022-09-23T10:41:27.788Z,990.51
2022-09-23T10:42:27.765Z,990.47
2022-09-23T10:43:27.769Z,990.53
2022-09-23T10:44:27.748Z,990.53
2022-09-23T10:45:27.749Z,990.45
2022-09-23T10:46:27.768Z,990.39
2022-09-23T10:47:27.721Z,990.44
2022-09-23T10:48:27.706Z,990.37
2022-09-23T10:49:27.699Z,990.41
2022-09-23T10:50:27.707Z,990.41
2022-09-23T10:51:27.689Z,990.38
2022-09-23T10:52:27.681Z,990.39
2022-09-23T10:53:27.772Z,990.36
2022-09-23T10:54:27.670Z,990.30
2022-09-23T10:55:27.654Z,990.30
2022-09-23T10:56:27.654Z,990.29
2022-09-23T10:57:27.647Z,990.31
2022-09-23T10:58:27.639Z,990.25
2022-09-23T10:59:27.605Z,990.27
2022-09-23T11:00:27.602Z,990.24
2022-09-23T11:01:27.669Z,990.19
2022-09-23T11:02:27.593Z,990.17
2022-09-23T11:03:27.588Z,990.17
2022-09-23T11:04:28.711Z,990.12
2022-09-23T11:05:27.556Z,990.13
2022-09-23T11:06:27.544Z,990.08
2022-09-23T11:07:27.672Z,990.08
2022-09-23T11:08:27.529Z,990.06
2022-09-23T11:09:27.541Z,990.06
2022-09-23T11:10:45.452Z,990.08
2022-09-23T11:11:29.517Z,990.04
2022-09-23T11:12:27.491Z,990.00
2022-09-23T11:13:27.479Z,990.03
2022-09-23T11:14:27.478Z,990.01
2022-09-23T11:15:27.461Z,989.99
2022-09-23T11:16:27.593Z,990.02
2022-09-23T11:17:27.437Z,989.99
2022-09-23T11:18:27.440Z,989.99
2022-09-23T11:19:27.424Z,990.00
2022-09-23T11:20:27.426Z,989.91
2022-09-23T11:21:27.432Z,989.90
2022-09-23T11:22:27.387Z,989.92
2022-09-23T11:23:27.397Z,989.91
2022-09-23T11:24:27.386Z,989.87
2022-09-23T11:25:27.367Z,989.92
2022-09-23T11:26:32.249Z,989.88
2022-09-23T11:27:28.356Z,989.87
2022-09-23T11:28:27.336Z,989.86
2022-09-23T11:29:27.354Z,989.79
2022-09-23T11:30:27.358Z,989.76
2022-09-23T11:31:27.327Z,989.77
2022-09-23T11:32:27.297Z,989.87
2022-09-23T11:33:27.289Z,989.80
2022-09-23T11:34:27.301Z,989.80
2022-09-23T11:35:27.298Z,989.76
2022-09-23T11:36:27.275Z,989.79
2022-09-23T11:37:27.271Z,989.77
2022-09-23T11:38:27.236Z,989.83
2022-09-23T11:39:27.250Z,989.77
2022-09-23T11:40:27.337Z,989.78
2022-09-23T11:41:27.210Z,989.81
2022-09-23T11:42:27.194Z,989.70
2022-09-23T11:43:27.183Z,989.72
2022-09-23T11:44:27.179Z,989.74
2022-09-23T11:45:27.190Z,989.73
2022-09-23T11:46:27.216Z,989.71
2022-09-23T11:47:27.140Z,989.64
2022-09-23T11:48:27.133Z,989.62
2022-09-23T11:49:27.153Z,989.57
2022-09-23T11:50:27.121Z,989.61
2022-09-23T11:51:27.107Z,989.65
2022-09-23T11:52:27.111Z,989.62
2022-09-23T11:53:27.099Z,989.60
2022-09-23T11:54:27.097Z,989.64
2022-09-23T11:55:27.079Z,989.62
2022-09-23T11:56:34.882Z,989.55
2022-09-23T11:57:30.485Z,989.51
2022-09-23T11:58:27.121Z,989.51
2022-09-23T11:59:36.858Z,989.49
2022-09-23T12:00:29.044Z,989.47
2022-09-23T12:01:35.037Z,989.44
2022-09-23T12:02:31.121Z,989.43
2022-09-23T12:03:40.517Z,989.43
2022-09-23T12:04:28.387Z,989.48
2022-09-23T12:05:27.113Z,989.46
2022-09-23T12:06:26.966Z,989.44
2022-09-23T12:07:26.970Z,989.42
2022-09-23T12:08:26.968Z,989.34
2022-09-23T12:09:47.165Z,989.35
2022-09-23T12:10:28.945Z,989.33
2022-09-23T12:11:26.929Z,989.30
2022-09-23T12:12:27.327Z,989.36
2022-09-23T12:13:27.886Z,989.38
2022-09-23T12:14:26.886Z,989.39
2022-09-23T12:15:26.895Z,989.39
2022-09-23T12:16:26.910Z,989.33
2022-09-23T12:17:26.918Z,989.39
2022-09-23T12:18:26.993Z,989.37
2022-09-23T12:19:26.838Z,989.32
2022-09-23T12:20:26.828Z,989.36
2022-09-23T12:21:49.265Z,989.33
2022-09-23T12:22:28.840Z,989.31
2022-09-23T12:23:26.820Z,989.28
2022-09-23T12:24:26.805Z,989.25
2022-09-23T12:25:26.804Z,989.28
2022-09-23T12:26:26.776Z,989.31
2022-09-23T12:27:26.769Z,989.29
2022-09-23T12:28:26.773Z,989.27